sensor_id;sensor_type;location;lat;lon;timestamp;P1;durP1;ratioP1;P2;durP2;ratioP2
17753;SDS011;8999;48.994;9.150;2024-01-11T00:01:49;50.17;;;24.80;;
17753;SDS011;8999;48.994;9.150;2024-01-11T00:04:22;58.07;;;25.67;;
17753;SDS011;8999;48.994;9.150;2024-01-11T00:06:53;56.70;;;25.53;;
17753;SDS011;8999;48.994;9.150;2024-01-11T00:09:25;62.37;;;27.13;;
17753;SDS011;8999;48.994;9.150;2024-01-11T00:11:56;63.70;;;28.03;;
17753;SDS011;8999;48.994;9.150;2024-01-11T00:14:28;55.17;;;24.53;;
17753;SDS011;8999;48.994;9.150;2024-01-11T00:17:00;55.23;;;24.90;;
17753;SDS011;8999;48.994;9.150;2024-01-11T00:19:33;51.47;;;23.03;;
17753;SDS011;8999;48.994;9.150;2024-01-11T00:22:05;55.23;;;26.77;;
17753;SDS011;8999;48.994;9.150;2024-01-11T00:24:37;56.97;;;24.97;;
17753;SDS011;8999;48.994;9.150;2024-01-11T00:27:09;53.37;;;25.23;;
17753;SDS011;8999;48.994;9.150;2024-01-11T00:29:40;62.77;;;25.93;;
17753;SDS011;8999;48.994;9.150;2024-01-11T00:32:12;54.90;;;25.53;;
17753;SDS011;8999;48.994;9.150;2024-01-11T00:34:45;55.43;;;25.03;;
17753;SDS011;8999;48.994;9.150;2024-01-11T00:37:17;59.13;;;26.20;;
17753;SDS011;8999;48.994;9.150;2024-01-11T00:39:48;53.33;;;25.97;;
17753;SDS011;8999;48.994;9.150;2024-01-11T00:42:20;55.07;;;26.03;;
17753;SDS011;8999;48.994;9.150;2024-01-11T00:44:52;54.23;;;27.30;;
17753;SDS011;8999;48.994;9.150;2024-01-11T00:47:23;55.07;;;25.50;;
17753;SDS011;8999;48.994;9.150;2024-01-11T00:49:56;57.67;;;25.70;;
17753;SDS011;8999;48.994;9.150;2024-01-11T00:52:28;55.97;;;26.50;;
17753;SDS011;8999;48.994;9.150;2024-01-11T00:55:00;53.57;;;24.43;;
17753;SDS011;8999;48.994;9.150;2024-01-11T00:57:31;65.13;;;27.30;;
17753;SDS011;8999;48.994;9.150;2024-01-11T01:00:03;59.67;;;26.73;;
17753;SDS011;8999;48.994;9.150;2024-01-11T01:02:36;57.23;;;25.87;;
17753;SDS011;8999;48.994;9.150;2024-01-11T01:05:09;59.47;;;26.83;;
17753;SDS011;8999;48.994;9.150;2024-01-11T01:07:40;53.20;;;26.17;;
17753;SDS011;8999;48.994;9.150;2024-01-11T01:10:12;47.43;;;24.23;;
17753;SDS011;8999;48.994;9.150;2024-01-11T01:12:44;59.37;;;25.87;;
17753;SDS011;8999;48.994;9.150;2024-01-11T01:15:15;64.13;;;28.00;;
17753;SDS011;8999;48.994;9.150;2024-01-11T01:17:47;52.00;;;25.07;;
17753;SDS011;8999;48.994;9.150;2024-01-11T01:20:20;52.40;;;23.23;;
17753;SDS011;8999;48.994;9.150;2024-01-11T01:22:52;55.87;;;25.90;;
17753;SDS011;8999;48.994;9.150;2024-01-11T01:25:23;58.50;;;25.53;;
17753;SDS011;8999;48.994;9.150;2024-01-11T01:27:55;60.43;;;27.40;;
17753;SDS011;8999;48.994;9.150;2024-01-11T01:30:29;55.70;;;26.20;;
17753;SDS011;8999;48.994;9.150;2024-01-11T01:33:00;53.03;;;25.63;;
17753;SDS011;8999;48.994;9.150;2024-01-11T01:35:33;51.97;;;23.97;;
17753;SDS011;8999;48.994;9.150;2024-01-11T01:38:06;50.43;;;24.33;;
17753;SDS011;8999;48.994;9.150;2024-01-11T01:40:37;58.57;;;25.83;;
17753;SDS011;8999;48.994;9.150;2024-01-11T01:43:09;55.07;;;24.77;;
17753;SDS011;8999;48.994;9.150;2024-01-11T01:45:41;54.47;;;24.03;;
17753;SDS011;8999;48.994;9.150;2024-01-11T01:48:12;51.90;;;24.03;;
17753;SDS011;8999;48.994;9.150;2024-01-11T01:50:45;43.87;;;21.57;;
17753;SDS011;8999;48.994;9.150;2024-01-11T01:53:21;50.30;;;23.43;;
17753;SDS011;8999;48.994;9.150;2024-01-11T01:55:53;50.97;;;22.87;;
17753;SDS011;8999;48.994;9.150;2024-01-11T01:58:24;52.40;;;25.63;;
17753;SDS011;8999;48.994;9.150;2024-01-11T02:00:56;51.27;;;23.17;;
17753;SDS011;8999;48.994;9.150;2024-01-11T02:03:28;51.27;;;24.07;;
17753;SDS011;8999;48.994;9.150;2024-01-11T02:06:02;57.23;;;25.00;;
17753;SDS011;8999;48.994;9.150;2024-01-11T02:08:35;52.93;;;24.17;;
17753;SDS011;8999;48.994;9.150;2024-01-11T02:11:07;53.43;;;25.13;;
17753;SDS011;8999;48.994;9.150;2024-01-11T02:13:38;54.47;;;25.23;;
17753;SDS011;8999;48.994;9.150;2024-01-11T02:16:11;54.00;;;24.00;;
17753;SDS011;8999;48.994;9.150;2024-01-11T02:18:43;48.07;;;23.63;;
17753;SDS011;8999;48.994;9.150;2024-01-11T02:21:16;58.27;;;26.00;;
17753;SDS011;8999;48.994;9.150;2024-01-11T02:23:55;51.27;;;22.80;;
17753;SDS011;8999;48.994;9.150;2024-01-11T02:26:33;50.07;;;23.20;;
17753;SDS011;8999;48.994;9.150;2024-01-11T02:29:05;53.67;;;23.50;;
17753;SDS011;8999;48.994;9.150;2024-01-11T02:31:36;49.60;;;24.43;;
17753;SDS011;8999;48.994;9.150;2024-01-11T02:34:08;49.73;;;23.20;;
17753;SDS011;8999;48.994;9.150;2024-01-11T02:36:41;51.70;;;24.10;;
17753;SDS011;8999;48.994;9.150;2024-01-11T02:39:14;54.90;;;24.10;;
17753;SDS011;8999;48.994;9.150;2024-01-11T02:41:48;48.47;;;21.90;;
17753;SDS011;8999;48.994;9.150;2024-01-11T02:44:21;48.27;;;23.13;;
17753;SDS011;8999;48.994;9.150;2024-01-11T02:46:53;48.80;;;22.80;;
17753;SDS011;8999;48.994;9.150;2024-01-11T02:49:24;50.80;;;24.63;;
17753;SDS011;8999;48.994;9.150;2024-01-11T02:51:56;53.60;;;23.57;;
17753;SDS011;8999;48.994;9.150;2024-01-11T02:54:29;51.83;;;24.53;;
17753;SDS011;8999;48.994;9.150;2024-01-11T02:57:00;50.63;;;22.83;;
17753;SDS011;8999;48.994;9.150;2024-01-11T02:59:32;52.13;;;23.27;;
17753;SDS011;8999;48.994;9.150;2024-01-11T03:02:04;51.10;;;23.50;;
17753;SDS011;8999;48.994;9.150;2024-01-11T03:04:35;50.90;;;24.10;;
17753;SDS011;8999;48.994;9.150;2024-01-11T03:07:07;48.40;;;23.80;;
17753;SDS011;8999;48.994;9.150;2024-01-11T03:09:40;49.83;;;22.57;;
17753;SDS011;8999;48.994;9.150;2024-01-11T03:12:11;47.50;;;22.43;;
17753;SDS011;8999;48.994;9.150;2024-01-11T03:14:43;52.97;;;22.43;;
17753;SDS011;8999;48.994;9.150;2024-01-11T03:17:15;50.63;;;22.87;;
17753;SDS011;8999;48.994;9.150;2024-01-11T03:19:46;50.57;;;23.30;;
17753;SDS011;8999;48.994;9.150;2024-01-11T03:22:18;49.27;;;22.53;;
17753;SDS011;8999;48.994;9.150;2024-01-11T03:24:51;49.87;;;23.47;;
17753;SDS011;8999;48.994;9.150;2024-01-11T03:27:23;51.20;;;23.13;;
17753;SDS011;8999;48.994;9.150;2024-01-11T03:29:54;53.53;;;25.17;;
17753;SDS011;8999;48.994;9.150;2024-01-11T03:32:26;53.17;;;23.47;;
17753;SDS011;8999;48.994;9.150;2024-01-11T03:34:58;46.73;;;23.03;;
17753;SDS011;8999;48.994;9.150;2024-01-11T03:37:29;52.50;;;23.17;;
17753;SDS011;8999;48.994;9.150;2024-01-11T03:40:03;51.00;;;23.63;;
17753;SDS011;8999;48.994;9.150;2024-01-11T03:42:35;56.33;;;24.10;;
17753;SDS011;8999;48.994;9.150;2024-01-11T03:45:07;50.53;;;22.77;;
17753;SDS011;8999;48.994;9.150;2024-01-11T03:47:39;50.77;;;23.97;;
17753;SDS011;8999;48.994;9.150;2024-01-11T03:50:12;48.47;;;23.53;;
17753;SDS011;8999;48.994;9.150;2024-01-11T03:52:44;51.63;;;23.23;;
17753;SDS011;8999;48.994;9.150;2024-01-11T03:55:17;56.47;;;24.40;;
17753;SDS011;8999;48.994;9.150;2024-01-11T03:57:48;52.40;;;23.57;;
17753;SDS011;8999;48.994;9.150;2024-01-11T04:00:20;49.43;;;24.17;;
17753;SDS011;8999;48.994;9.150;2024-01-11T04:02:51;56.30;;;26.00;;
17753;SDS011;8999;48.994;9.150;2024-01-11T04:05:23;54.03;;;24.83;;
17753;SDS011;8999;48.994;9.150;2024-01-11T04:07:55;51.93;;;23.63;;
17753;SDS011;8999;48.994;9.150;2024-01-11T04:10:28;48.43;;;23.37;;
17753;SDS011;8999;48.994;9.150;2024-01-11T04:12:59;47.77;;;21.90;;
17753;SDS011;8999;48.994;9.150;2024-01-11T04:15:31;58.23;;;23.77;;
17753;SDS011;8999;48.994;9.150;2024-01-11T04:18:03;56.40;;;23.13;;
17753;SDS011;8999;48.994;9.150;2024-01-11T04:20:35;53.27;;;23.80;;
17753;SDS011;8999;48.994;9.150;2024-01-11T04:23:06;48.60;;;23.17;;
17753;SDS011;8999;48.994;9.150;2024-01-11T04:25:39;50.53;;;23.60;;
17753;SDS011;8999;48.994;9.150;2024-01-11T04:28:11;46.20;;;22.07;;
17753;SDS011;8999;48.994;9.150;2024-01-11T04:30:43;57.47;;;26.63;;
17753;SDS011;8999;48.994;9.150;2024-01-11T04:33:14;68.20;;;27.97;;
17753;SDS011;8999;48.994;9.150;2024-01-11T04:35:46;70.43;;;29.47;;
17753;SDS011;8999;48.994;9.150;2024-01-11T04:38:17;66.17;;;27.33;;
17753;SDS011;8999;48.994;9.150;2024-01-11T04:40:50;65.67;;;27.47;;
17753;SDS011;8999;48.994;9.150;2024-01-11T04:43:22;59.10;;;26.67;;
17753;SDS011;8999;48.994;9.150;2024-01-11T04:45:54;55.67;;;24.90;;
17753;SDS011;8999;48.994;9.150;2024-01-11T04:48:25;58.00;;;25.93;;
17753;SDS011;8999;48.994;9.150;2024-01-11T04:50:57;52.90;;;23.77;;
17753;SDS011;8999;48.994;9.150;2024-01-11T04:53:28;58.77;;;26.00;;
17753;SDS011;8999;48.994;9.150;2024-01-11T04:56:02;56.60;;;26.70;;
17753;SDS011;8999;48.994;9.150;2024-01-11T04:58:34;59.80;;;24.67;;
17753;SDS011;8999;48.994;9.150;2024-01-11T05:01:06;48.70;;;23.50;;
17753;SDS011;8999;48.994;9.150;2024-01-11T05:03:37;53.93;;;24.20;;
17753;SDS011;8999;48.994;9.150;2024-01-11T05:06:14;54.53;;;25.00;;
17753;SDS011;8999;48.994;9.150;2024-01-11T05:08:46;51.43;;;24.07;;
17753;SDS011;8999;48.994;9.150;2024-01-11T05:11:20;55.03;;;25.53;;
17753;SDS011;8999;48.994;9.150;2024-01-11T05:13:54;56.63;;;24.00;;
17753;SDS011;8999;48.994;9.150;2024-01-11T05:16:26;52.30;;;22.87;;
17753;SDS011;8999;48.994;9.150;2024-01-11T05:18:58;51.30;;;23.93;;
17753;SDS011;8999;48.994;9.150;2024-01-11T05:21:30;52.77;;;23.40;;
17753;SDS011;8999;48.994;9.150;2024-01-11T05:24:01;54.27;;;24.23;;
17753;SDS011;8999;48.994;9.150;2024-01-11T05:26:34;53.90;;;24.83;;
17753;SDS011;8999;48.994;9.150;2024-01-11T05:29:06;52.77;;;24.57;;
17753;SDS011;8999;48.994;9.150;2024-01-11T05:31:37;58.13;;;26.33;;
17753;SDS011;8999;48.994;9.150;2024-01-11T05:34:09;56.50;;;25.23;;
17753;SDS011;8999;48.994;9.150;2024-01-11T05:36:42;60.17;;;26.90;;
17753;SDS011;8999;48.994;9.150;2024-01-11T05:39:14;57.20;;;25.87;;
17753;SDS011;8999;48.994;9.150;2024-01-11T05:41:47;53.17;;;24.17;;
17753;SDS011;8999;48.994;9.150;2024-01-11T05:44:19;56.47;;;24.73;;
17753;SDS011;8999;48.994;9.150;2024-01-11T05:46:50;49.57;;;23.70;;
17753;SDS011;8999;48.994;9.150;2024-01-11T05:49:22;61.07;;;25.13;;
17753;SDS011;8999;48.994;9.150;2024-01-11T05:51:53;54.53;;;24.40;;
17753;SDS011;8999;48.994;9.150;2024-01-11T05:54:25;57.87;;;26.87;;
17753;SDS011;8999;48.994;9.150;2024-01-11T05:56:59;58.03;;;26.87;;
17753;SDS011;8999;48.994;9.150;2024-01-11T05:59:31;57.97;;;26.33;;
17753;SDS011;8999;48.994;9.150;2024-01-11T06:02:02;66.13;;;25.43;;
17753;SDS011;8999;48.994;9.150;2024-01-11T06:04:34;55.13;;;25.80;;
17753;SDS011;8999;48.994;9.150;2024-01-11T06:07:06;60.80;;;26.27;;
17753;SDS011;8999;48.994;9.150;2024-01-11T06:09:37;62.57;;;27.87;;
17753;SDS011;8999;48.994;9.150;2024-01-11T06:12:10;53.00;;;25.70;;
17753;SDS011;8999;48.994;9.150;2024-01-11T06:14:44;59.20;;;27.33;;
17753;SDS011;8999;48.994;9.150;2024-01-11T06:17:16;59.70;;;26.90;;
17753;SDS011;8999;48.994;9.150;2024-01-11T06:19:48;50.47;;;24.50;;
17753;SDS011;8999;48.994;9.150;2024-01-11T06:22:19;53.33;;;25.60;;
17753;SDS011;8999;48.994;9.150;2024-01-11T06:24:51;57.63;;;26.47;;
17753;SDS011;8999;48.994;9.150;2024-01-11T06:27:24;57.50;;;26.43;;
17753;SDS011;8999;48.994;9.150;2024-01-11T06:29:55;56.37;;;25.70;;
17753;SDS011;8999;48.994;9.150;2024-01-11T06:32:27;59.93;;;27.17;;
17753;SDS011;8999;48.994;9.150;2024-01-11T06:34:59;57.50;;;26.00;;
17753;SDS011;8999;48.994;9.150;2024-01-11T06:37:30;54.90;;;27.07;;
17753;SDS011;8999;48.994;9.150;2024-01-11T06:40:02;58.50;;;25.80;;
17753;SDS011;8999;48.994;9.150;2024-01-11T06:42:36;53.63;;;25.23;;
17753;SDS011;8999;48.994;9.150;2024-01-11T06:45:08;60.50;;;26.47;;
17753;SDS011;8999;48.994;9.150;2024-01-11T06:47:40;54.03;;;26.37;;
17753;SDS011;8999;48.994;9.150;2024-01-11T06:50:12;54.10;;;24.23;;
17753;SDS011;8999;48.994;9.150;2024-01-11T06:52:44;55.07;;;25.13;;
17753;SDS011;8999;48.994;9.150;2024-01-11T06:55:15;54.07;;;25.93;;
17753;SDS011;8999;48.994;9.150;2024-01-11T06:57:48;58.70;;;26.20;;
17753;SDS011;8999;48.994;9.150;2024-01-11T07:00:20;58.97;;;26.43;;
17753;SDS011;8999;48.994;9.150;2024-01-11T07:02:52;58.93;;;27.83;;
17753;SDS011;8999;48.994;9.150;2024-01-11T07:05:24;63.30;;;28.87;;
17753;SDS011;8999;48.994;9.150;2024-01-11T07:07:56;64.43;;;27.40;;
17753;SDS011;8999;48.994;9.150;2024-01-11T07:10:27;64.80;;;27.57;;
17753;SDS011;8999;48.994;9.150;2024-01-11T07:13:00;53.80;;;25.03;;
17753;SDS011;8999;48.994;9.150;2024-01-11T07:15:32;52.73;;;25.07;;
17753;SDS011;8999;48.994;9.150;2024-01-11T07:18:04;53.77;;;26.57;;
17753;SDS011;8999;48.994;9.150;2024-01-11T07:20:35;51.43;;;24.27;;
17753;SDS011;8999;48.994;9.150;2024-01-11T07:23:07;56.90;;;26.43;;
17753;SDS011;8999;48.994;9.150;2024-01-11T07:25:39;53.83;;;24.67;;
17753;SDS011;8999;48.994;9.150;2024-01-11T07:28:12;59.20;;;25.87;;
17753;SDS011;8999;48.994;9.150;2024-01-11T07:30:44;55.83;;;26.40;;
17753;SDS011;8999;48.994;9.150;2024-01-11T07:33:16;61.63;;;27.80;;
17753;SDS011;8999;48.994;9.150;2024-01-11T07:35:47;60.20;;;27.50;;
17753;SDS011;8999;48.994;9.150;2024-01-11T07:38:20;62.17;;;28.00;;
17753;SDS011;8999;48.994;9.150;2024-01-11T07:40:51;52.37;;;25.57;;
17753;SDS011;8999;48.994;9.150;2024-01-11T07:43:24;62.07;;;26.70;;
17753;SDS011;8999;48.994;9.150;2024-01-11T07:45:58;54.70;;;26.07;;
17753;SDS011;8999;48.994;9.150;2024-01-11T07:48:29;49.83;;;25.87;;
17753;SDS011;8999;48.994;9.150;2024-01-11T07:51:01;65.17;;;29.63;;
17753;SDS011;8999;48.994;9.150;2024-01-11T07:53:34;60.50;;;28.27;;
17753;SDS011;8999;48.994;9.150;2024-01-11T07:56:06;56.43;;;25.67;;
17753;SDS011;8999;48.994;9.150;2024-01-11T07:58:39;59.87;;;27.73;;
17753;SDS011;8999;48.994;9.150;2024-01-11T08:01:11;57.57;;;26.57;;
17753;SDS011;8999;48.994;9.150;2024-01-11T08:03:43;67.40;;;30.03;;
17753;SDS011;8999;48.994;9.150;2024-01-11T08:06:16;82.43;;;35.67;;
17753;SDS011;8999;48.994;9.150;2024-01-11T08:08:47;75.17;;;32.53;;
17753;SDS011;8999;48.994;9.150;2024-01-11T08:11:21;63.93;;;29.83;;
17753;SDS011;8999;48.994;9.150;2024-01-11T08:13:55;63.20;;;27.53;;
17753;SDS011;8999;48.994;9.150;2024-01-11T08:16:26;57.93;;;28.53;;
17753;SDS011;8999;48.994;9.150;2024-01-11T08:18:58;58.43;;;27.73;;
17753;SDS011;8999;48.994;9.150;2024-01-11T08:21:30;56.90;;;27.07;;
17753;SDS011;8999;48.994;9.150;2024-01-11T08:24:03;59.27;;;27.97;;
17753;SDS011;8999;48.994;9.150;2024-01-11T08:26:34;65.23;;;27.20;;
17753;SDS011;8999;48.994;9.150;2024-01-11T08:29:08;73.83;;;31.27;;
17753;SDS011;8999;48.994;9.150;2024-01-11T08:31:40;67.07;;;30.20;;
17753;SDS011;8999;48.994;9.150;2024-01-11T08:34:13;67.73;;;30.63;;
17753;SDS011;8999;48.994;9.150;2024-01-11T08:36:45;56.90;;;26.93;;
17753;SDS011;8999;48.994;9.150;2024-01-11T08:39:18;62.63;;;28.57;;
17753;SDS011;8999;48.994;9.150;2024-01-11T08:41:51;59.90;;;28.27;;
17753;SDS011;8999;48.994;9.150;2024-01-11T08:44:24;61.77;;;28.57;;
17753;SDS011;8999;48.994;9.150;2024-01-11T08:46:56;60.67;;;28.93;;
17753;SDS011;8999;48.994;9.150;2024-01-11T08:49:29;61.87;;;28.33;;
17753;SDS011;8999;48.994;9.150;2024-01-11T08:52:01;64.70;;;29.53;;
17753;SDS011;8999;48.994;9.150;2024-01-11T08:54:33;56.40;;;26.73;;
17753;SDS011;8999;48.994;9.150;2024-01-11T08:57:05;55.73;;;26.80;;
17753;SDS011;8999;48.994;9.150;2024-01-11T08:59:38;53.00;;;25.63;;
17753;SDS011;8999;48.994;9.150;2024-01-11T09:02:10;52.57;;;25.10;;
17753;SDS011;8999;48.994;9.150;2024-01-11T09:04:42;53.07;;;24.37;;
17753;SDS011;8999;48.994;9.150;2024-01-11T09:07:14;66.03;;;29.27;;
17753;SDS011;8999;48.994;9.150;2024-01-11T09:09:46;77.20;;;30.47;;
17753;SDS011;8999;48.994;9.150;2024-01-11T09:12:18;72.43;;;30.67;;
17753;SDS011;8999;48.994;9.150;2024-01-11T09:14:51;54.43;;;26.50;;
17753;SDS011;8999;48.994;9.150;2024-01-11T09:17:23;65.37;;;31.50;;
17753;SDS011;8999;48.994;9.150;2024-01-11T09:19:55;53.97;;;27.00;;
17753;SDS011;8999;48.994;9.150;2024-01-11T09:22:27;57.23;;;25.80;;
17753;SDS011;8999;48.994;9.150;2024-01-11T09:24:59;56.17;;;26.00;;
17753;SDS011;8999;48.994;9.150;2024-01-11T09:27:31;48.63;;;24.63;;
17753;SDS011;8999;48.994;9.150;2024-01-11T09:30:05;49.73;;;24.03;;
17753;SDS011;8999;48.994;9.150;2024-01-11T09:32:37;49.83;;;24.03;;
17753;SDS011;8999;48.994;9.150;2024-01-11T09:35:09;54.20;;;24.27;;
17753;SDS011;8999;48.994;9.150;2024-01-11T09:37:41;47.60;;;24.00;;
17753;SDS011;8999;48.994;9.150;2024-01-11T09:40:16;50.80;;;26.00;;
17753;SDS011;8999;48.994;9.150;2024-01-11T09:42:48;52.33;;;24.90;;
17753;SDS011;8999;48.994;9.150;2024-01-11T09:45:21;56.53;;;28.17;;
17753;SDS011;8999;48.994;9.150;2024-01-11T09:47:53;53.87;;;25.47;;
17753;SDS011;8999;48.994;9.150;2024-01-11T09:50:25;53.27;;;25.50;;
17753;SDS011;8999;48.994;9.150;2024-01-11T09:52:57;56.90;;;26.27;;
17753;SDS011;8999;48.994;9.150;2024-01-11T09:55:30;52.70;;;25.43;;
17753;SDS011;8999;48.994;9.150;2024-01-11T09:58:02;48.77;;;24.93;;
17753;SDS011;8999;48.994;9.150;2024-01-11T10:00:36;49.07;;;24.57;;
17753;SDS011;8999;48.994;9.150;2024-01-11T10:03:08;49.50;;;24.83;;
17753;SDS011;8999;48.994;9.150;2024-01-11T10:05:40;54.57;;;25.80;;
17753;SDS011;8999;48.994;9.150;2024-01-11T10:08:12;52.27;;;25.37;;
17753;SDS011;8999;48.994;9.150;2024-01-11T10:10:44;50.07;;;24.77;;
17753;SDS011;8999;48.994;9.150;2024-01-11T10:13:16;55.37;;;25.50;;
17753;SDS011;8999;48.994;9.150;2024-01-11T10:15:49;50.90;;;24.67;;
17753;SDS011;8999;48.994;9.150;2024-01-11T10:18:20;50.67;;;24.07;;
17753;SDS011;8999;48.994;9.150;2024-01-11T10:20:53;52.77;;;25.30;;
17753;SDS011;8999;48.994;9.150;2024-01-11T10:23:25;53.50;;;27.40;;
17753;SDS011;8999;48.994;9.150;2024-01-11T10:25:59;53.17;;;26.10;;
17753;SDS011;8999;48.994;9.150;2024-01-11T10:28:31;47.70;;;23.70;;
17753;SDS011;8999;48.994;9.150;2024-01-11T10:31:07;49.03;;;23.73;;
17753;SDS011;8999;48.994;9.150;2024-01-11T10:33:39;51.70;;;25.77;;
17753;SDS011;8999;48.994;9.150;2024-01-11T10:36:11;53.63;;;25.47;;
17753;SDS011;8999;48.994;9.150;2024-01-11T10:38:43;45.43;;;24.10;;
17753;SDS011;8999;48.994;9.150;2024-01-11T10:41:18;54.97;;;27.53;;
17753;SDS011;8999;48.994;9.150;2024-01-11T10:43:51;50.10;;;24.93;;
17753;SDS011;8999;48.994;9.150;2024-01-11T10:46:25;48.83;;;24.93;;
17753;SDS011;8999;48.994;9.150;2024-01-11T10:48:57;49.60;;;25.27;;
17753;SDS011;8999;48.994;9.150;2024-01-11T10:51:31;52.07;;;24.47;;
17753;SDS011;8999;48.994;9.150;2024-01-11T10:54:03;47.77;;;23.53;;
17753;SDS011;8999;48.994;9.150;2024-01-11T10:56:36;50.13;;;24.33;;
17753;SDS011;8999;48.994;9.150;2024-01-11T10:59:11;52.07;;;24.47;;
17753;SDS011;8999;48.994;9.150;2024-01-11T11:01:44;50.70;;;24.90;;
17753;SDS011;8999;48.994;9.150;2024-01-11T11:04:16;46.53;;;23.10;;
17753;SDS011;8999;48.994;9.150;2024-01-11T11:06:49;47.27;;;25.23;;
17753;SDS011;8999;48.994;9.150;2024-01-11T11:09:22;46.57;;;23.87;;
17753;SDS011;8999;48.994;9.150;2024-01-11T11:11:54;48.67;;;25.27;;
17753;SDS011;8999;48.994;9.150;2024-01-11T11:14:27;51.63;;;23.80;;
17753;SDS011;8999;48.994;9.150;2024-01-11T11:17:00;47.03;;;23.63;;
17753;SDS011;8999;48.994;9.150;2024-01-11T11:19:32;45.23;;;23.13;;
17753;SDS011;8999;48.994;9.150;2024-01-11T11:22:04;51.43;;;25.97;;
17753;SDS011;8999;48.994;9.150;2024-01-11T11:24:36;48.10;;;24.37;;
17753;SDS011;8999;48.994;9.150;2024-01-11T11:27:09;52.00;;;26.00;;
17753;SDS011;8999;48.994;9.150;2024-01-11T11:29:46;51.70;;;24.73;;
17753;SDS011;8999;48.994;9.150;2024-01-11T11:32:20;50.47;;;25.27;;
17753;SDS011;8999;48.994;9.150;2024-01-11T11:35:06;47.67;;;24.63;;
17753;SDS011;8999;48.994;9.150;2024-01-11T11:37:38;49.53;;;24.90;;
17753;SDS011;8999;48.994;9.150;2024-01-11T11:40:10;47.07;;;24.07;;
17753;SDS011;8999;48.994;9.150;2024-01-11T11:42:42;50.30;;;25.33;;
17753;SDS011;8999;48.994;9.150;2024-01-11T11:45:18;49.83;;;24.83;;
17753;SDS011;8999;48.994;9.150;2024-01-11T11:47:57;49.53;;;25.57;;
17753;SDS011;8999;48.994;9.150;2024-01-11T11:50:29;52.30;;;24.23;;
17753;SDS011;8999;48.994;9.150;2024-01-11T11:53:02;49.37;;;24.13;;
17753;SDS011;8999;48.994;9.150;2024-01-11T11:55:34;49.77;;;24.63;;
17753;SDS011;8999;48.994;9.150;2024-01-11T11:58:05;50.60;;;25.43;;
17753;SDS011;8999;48.994;9.150;2024-01-11T12:00:37;58.17;;;30.47;;
17753;SDS011;8999;48.994;9.150;2024-01-11T12:03:11;52.57;;;26.37;;
17753;SDS011;8999;48.994;9.150;2024-01-11T12:05:43;46.57;;;24.07;;
17753;SDS011;8999;48.994;9.150;2024-01-11T12:08:14;51.10;;;24.63;;
17753;SDS011;8999;48.994;9.150;2024-01-11T12:10:46;51.73;;;27.07;;
17753;SDS011;8999;48.994;9.150;2024-01-11T12:13:18;51.70;;;24.70;;
17753;SDS011;8999;48.994;9.150;2024-01-11T12:15:51;47.47;;;24.37;;
17753;SDS011;8999;48.994;9.150;2024-01-11T12:18:24;47.77;;;24.73;;
17753;SDS011;8999;48.994;9.150;2024-01-11T12:20:56;58.53;;;28.00;;
17753;SDS011;8999;48.994;9.150;2024-01-11T12:23:28;53.73;;;27.57;;
17753;SDS011;8999;48.994;9.150;2024-01-11T12:26:01;50.13;;;24.73;;
17753;SDS011;8999;48.994;9.150;2024-01-11T12:28:34;51.20;;;25.60;;
17753;SDS011;8999;48.994;9.150;2024-01-11T12:31:05;46.63;;;24.73;;
17753;SDS011;8999;48.994;9.150;2024-01-11T12:33:39;47.13;;;23.97;;
17753;SDS011;8999;48.994;9.150;2024-01-11T12:36:11;48.53;;;24.57;;
17753;SDS011;8999;48.994;9.150;2024-01-11T12:38:46;47.30;;;24.23;;
17753;SDS011;8999;48.994;9.150;2024-01-11T12:41:18;59.43;;;30.20;;
17753;SDS011;8999;48.994;9.150;2024-01-11T12:43:50;52.87;;;27.07;;
17753;SDS011;8999;48.994;9.150;2024-01-11T12:46:22;50.43;;;24.83;;
17753;SDS011;8999;48.994;9.150;2024-01-11T12:48:55;49.20;;;24.23;;
17753;SDS011;8999;48.994;9.150;2024-01-11T12:51:27;52.90;;;25.80;;
17753;SDS011;8999;48.994;9.150;2024-01-11T12:53:59;52.13;;;24.30;;
17753;SDS011;8999;48.994;9.150;2024-01-11T12:56:31;49.07;;;25.47;;
17753;SDS011;8999;48.994;9.150;2024-01-11T12:59:05;50.67;;;26.47;;
17753;SDS011;8999;48.994;9.150;2024-01-11T13:01:36;46.63;;;24.70;;
17753;SDS011;8999;48.994;9.150;2024-01-11T13:04:11;47.53;;;23.00;;
17753;SDS011;8999;48.994;9.150;2024-01-11T13:06:43;49.67;;;20.90;;
17753;SDS011;8999;48.994;9.150;2024-01-11T13:09:15;42.67;;;20.73;;
17753;SDS011;8999;48.994;9.150;2024-01-11T13:11:48;46.20;;;20.40;;
17753;SDS011;8999;48.994;9.150;2024-01-11T13:14:20;41.13;;;20.30;;
17753;SDS011;8999;48.994;9.150;2024-01-11T13:16:51;47.23;;;21.30;;
17753;SDS011;8999;48.994;9.150;2024-01-11T13:19:25;45.80;;;21.63;;
17753;SDS011;8999;48.994;9.150;2024-01-11T13:21:56;52.37;;;24.83;;
17753;SDS011;8999;48.994;9.150;2024-01-11T13:24:28;51.63;;;23.57;;
17753;SDS011;8999;48.994;9.150;2024-01-11T13:27:00;44.90;;;22.90;;
17753;SDS011;8999;48.994;9.150;2024-01-11T13:29:32;47.47;;;24.20;;
17753;SDS011;8999;48.994;9.150;2024-01-11T13:32:04;46.60;;;23.50;;
17753;SDS011;8999;48.994;9.150;2024-01-11T13:34:37;48.87;;;24.07;;
17753;SDS011;8999;48.994;9.150;2024-01-11T13:37:09;46.93;;;22.53;;
17753;SDS011;8999;48.994;9.150;2024-01-11T13:39:41;48.37;;;23.93;;
17753;SDS011;8999;48.994;9.150;2024-01-11T13:42:12;53.03;;;25.13;;
17753;SDS011;8999;48.994;9.150;2024-01-11T13:44:44;46.33;;;23.43;;
17753;SDS011;8999;48.994;9.150;2024-01-11T13:47:16;47.50;;;23.43;;
17753;SDS011;8999;48.994;9.150;2024-01-11T13:49:49;44.70;;;22.97;;
17753;SDS011;8999;48.994;9.150;2024-01-11T13:52:20;54.57;;;25.83;;
17753;SDS011;8999;48.994;9.150;2024-01-11T13:54:52;54.37;;;27.87;;
17753;SDS011;8999;48.994;9.150;2024-01-11T13:57:24;48.53;;;23.60;;
17753;SDS011;8999;48.994;9.150;2024-01-11T13:59:56;58.00;;;26.37;;
17753;SDS011;8999;48.994;9.150;2024-01-11T14:02:28;45.27;;;23.37;;
17753;SDS011;8999;48.994;9.150;2024-01-11T14:05:01;46.07;;;23.73;;
17753;SDS011;8999;48.994;9.150;2024-01-11T14:07:33;48.37;;;23.47;;
17753;SDS011;8999;48.994;9.150;2024-01-11T14:10:05;49.43;;;24.10;;
17753;SDS011;8999;48.994;9.150;2024-01-11T14:12:38;49.93;;;26.13;;
17753;SDS011;8999;48.994;9.150;2024-01-11T14:15:10;49.13;;;23.70;;
17753;SDS011;8999;48.994;9.150;2024-01-11T14:17:42;45.73;;;23.27;;
17753;SDS011;8999;48.994;9.150;2024-01-11T14:20:15;48.50;;;23.83;;
17753;SDS011;8999;48.994;9.150;2024-01-11T14:22:47;49.67;;;23.20;;
17753;SDS011;8999;48.994;9.150;2024-01-11T14:25:20;44.03;;;23.63;;
17753;SDS011;8999;48.994;9.150;2024-01-11T14:27:52;48.17;;;23.27;;
17753;SDS011;8999;48.994;9.150;2024-01-11T14:30:24;47.07;;;24.03;;
17753;SDS011;8999;48.994;9.150;2024-01-11T14:32:56;43.20;;;21.53;;
17753;SDS011;8999;48.994;9.150;2024-01-11T14:35:29;45.77;;;22.77;;
17753;SDS011;8999;48.994;9.150;2024-01-11T14:38:01;47.17;;;21.83;;
17753;SDS011;8999;48.994;9.150;2024-01-11T14:40:34;43.00;;;21.40;;
17753;SDS011;8999;48.994;9.150;2024-01-11T14:43:06;40.60;;;21.37;;
17753;SDS011;8999;48.994;9.150;2024-01-11T14:45:38;45.80;;;22.20;;
17753;SDS011;8999;48.994;9.150;2024-01-11T14:48:10;47.33;;;22.83;;
17753;SDS011;8999;48.994;9.150;2024-01-11T14:50:44;48.27;;;24.43;;
17753;SDS011;8999;48.994;9.150;2024-01-11T14:53:15;50.73;;;23.83;;
17753;SDS011;8999;48.994;9.150;2024-01-11T14:55:47;42.47;;;23.03;;
17753;SDS011;8999;48.994;9.150;2024-01-11T14:58:19;41.80;;;21.03;;
17753;SDS011;8999;48.994;9.150;2024-01-11T15:00:51;40.27;;;20.47;;
17753;SDS011;8999;48.994;9.150;2024-01-11T15:03:23;44.83;;;21.27;;